sensor_id;sensor_type;location;lat;lon;timestamp;temperature;humidity
26378;DHT22;14078;50.974;6.786;2023-04-01T00:00:37;10.70;99.90
26378;DHT22;14078;50.974;6.786;2023-04-01T00:03:03;10.70;91.50
26378;DHT22;14078;50.974;6.786;2023-04-01T00:05:30;10.70;68.80
26378;DHT22;14078;50.974;6.786;2023-04-01T00:07:56;10.70;59.70
26378;DHT22;14078;50.974;6.786;2023-04-01T00:10:23;10.70;57.90
26378;DHT22;14078;50.974;6.786;2023-04-01T00:12:49;10.70;52.60
26378;DHT22;14078;50.974;6.786;2023-04-01T00:15:16;10.70;49.50
26378;DHT22;14078;50.974;6.786;2023-04-01T00:17:44;10.70;58.50
26378;DHT22;14078;50.974;6.786;2023-04-01T00:20:11;10.70;53.70
26378;DHT22;14078;50.974;6.786;2023-04-01T00:22:37;10.80;41.00
26378;DHT22;14078;50.974;6.786;2023-04-01T00:25:04;10.80;50.90
26378;DHT22;14078;50.974;6.786;2023-04-01T00:27:31;10.80;45.30
26378;DHT22;14078;50.974;6.786;2023-04-01T00:29:57;10.70;50.70
26378;DHT22;14078;50.974;6.786;2023-04-01T00:32:24;10.70;57.80
26378;DHT22;14078;50.974;6.786;2023-04-01T00:34:52;10.70;59.70
26378;DHT22;14078;50.974;6.786;2023-04-01T00:37:19;10.70;63.30
26378;DHT22;14078;50.974;6.786;2023-04-01T00:39:46;10.60;67.90
26378;DHT22;14078;50.974;6.786;2023-04-01T00:42:13;10.60;57.80
26378;DHT22;14078;50.974;6.786;2023-04-01T00:44:39;10.60;61.60
26378;DHT22;14078;50.974;6.786;2023-04-01T00:47:06;10.60;84.60
26378;DHT22;14078;50.974;6.786;2023-04-01T00:49:33;10.70;59.60
26378;DHT22;14078;50.974;6.786;2023-04-01T00:52:03;10.70;55.70
26378;DHT22;14078;50.974;6.786;2023-04-01T00:54:30;10.70;39.80
26378;DHT22;14078;50.974;6.786;2023-04-01T00:56:58;10.70;30.10
26378;DHT22;14078;50.974;6.786;2023-04-01T00:59:26;10.80;16.50
26378;DHT22;14078;50.974;6.786;2023-04-01T01:01:54;10.80;18.80
26378;DHT22;14078;50.974;6.786;2023-04-01T01:04:21;10.80;18.40
26378;DHT22;14078;50.974;6.786;2023-04-01T01:06:50;10.80;17.30
26378;DHT22;14078;50.974;6.786;2023-04-01T01:09:28;10.70;31.90
26378;DHT22;14078;50.974;6.786;2023-04-01T01:11:58;10.70;39.20
26378;DHT22;14078;50.974;6.786;2023-04-01T01:14:32;10.60;84.30
26378;DHT22;14078;50.974;6.786;2023-04-01T01:17:02;10.50;98.00
26378;DHT22;14078;50.974;6.786;2023-04-01T01:19:35;10.50;99.90
26378;DHT22;14078;50.974;6.786;2023-04-01T01:22:17;10.40;99.90
26378;DHT22;14078;50.974;6.786;2023-04-01T01:24:54;10.40;99.90
26378;DHT22;14078;50.974;6.786;2023-04-01T01:27:23;10.40;99.90
26378;DHT22;14078;50.974;6.786;2023-04-01T01:29:57;10.30;99.90
26378;DHT22;14078;50.974;6.786;2023-04-01T01:32:31;10.30;99.90
26378;DHT22;14078;50.974;6.786;2023-04-01T01:37:42;10.30;99.90
26378;DHT22;14078;50.974;6.786;2023-04-01T01:40:10;10.30;99.90
26378;DHT22;14078;50.974;6.786;2023-04-01T01:42:38;10.30;99.90
26378;DHT22;14078;50.974;6.786;2023-04-01T01:45:05;10.30;99.90
26378;DHT22;14078;50.974;6.786;2023-04-01T01:47:33;10.20;99.90
26378;DHT22;14078;50.974;6.786;2023-04-01T01:50:01;10.20;99.90
26378;DHT22;14078;50.974;6.786;2023-04-01T01:52:28;10.20;99.90
26378;DHT22;14078;50.974;6.786;2023-04-01T01:54:56;10.10;99.90
26378;DHT22;14078;50.974;6.786;2023-04-01T01:57:25;10.10;99.90
26378;DHT22;14078;50.974;6.786;2023-04-01T01:59:52;10.10;99.90
26378;DHT22;14078;50.974;6.786;2023-04-01T02:02:21;10.00;99.90
26378;DHT22;14078;50.974;6.786;2023-04-01T02:04:48;10.00;99.90
26378;DHT22;14078;50.974;6.786;2023-04-01T02:07:16;9.90;99.90
26378;DHT22;14078;50.974;6.786;2023-04-01T02:09:46;9.90;99.90
26378;DHT22;14078;50.974;6.786;2023-04-01T02:12:14;9.90;99.90
26378;DHT22;14078;50.974;6.786;2023-04-01T02:14:43;9.80;99.90
26378;DHT22;14078;50.974;6.786;2023-04-01T02:17:12;9.80;99.90
26378;DHT22;14078;50.974;6.786;2023-04-01T02:19:42;9.70;99.90
26378;DHT22;14078;50.974;6.786;2023-04-01T02:22:11;9.70;99.90
26378;DHT22;14078;50.974;6.786;2023-04-01T02:24:38;9.70;99.90
26378;DHT22;14078;50.974;6.786;2023-04-01T02:27:06;9.60;99.90
26378;DHT22;14078;50.974;6.786;2023-04-01T02:29:34;9.60;99.90
26378;DHT22;14078;50.974;6.786;2023-04-01T02:32:00;9.60;99.90
26378;DHT22;14078;50.974;6.786;2023-04-01T02:34:27;9.60;99.90
26378;DHT22;14078;50.974;6.786;2023-04-01T02:36:54;9.60;99.90
26378;DHT22;14078;50.974;6.786;2023-04-01T02:39:21;9.50;99.90
26378;DHT22;14078;50.974;6.786;2023-04-01T02:41:48;9.50;99.90
26378;DHT22;14078;50.974;6.786;2023-04-01T02:44:14;9.60;99.90
26378;DHT22;14078;50.974;6.786;2023-04-01T02:46:42;9.60;99.90
26378;DHT22;14078;50.974;6.786;2023-04-01T03:28:26;9.70;99.90
26378;DHT22;14078;50.974;6.786;2023-04-01T03:30:52;9.80;99.90
26378;DHT22;14078;50.974;6.786;2023-04-01T03:33:19;9.80;99.90
26378;DHT22;14078;50.974;6.786;2023-04-01T03:35:45;9.80;99.90
26378;DHT22;14078;50.974;6.786;2023-04-01T03:38:12;9.80;99.90
26378;DHT22;14078;50.974;6.786;2023-04-01T03:40:41;9.80;99.90
26378;DHT22;14078;50.974;6.786;2023-04-01T03:43:08;9.80;99.90
26378;DHT22;14078;50.974;6.786;2023-04-01T03:45:36;9.80;99.90
26378;DHT22;14078;50.974;6.786;2023-04-01T03:48:09;9.70;99.90
26378;DHT22;14078;50.974;6.786;2023-04-01T03:50:35;9.70;99.90
26378;DHT22;14078;50.974;6.786;2023-04-01T03:53:02;9.70;99.90
26378;DHT22;14078;50.974;6.786;2023-04-01T03:55:28;9.70;99.90
26378;DHT22;14078;50.974;6.786;2023-04-01T03:57:55;9.70;99.90
26378;DHT22;14078;50.974;6.786;2023-04-01T04:00:21;9.70;99.90
26378;DHT22;14078;50.974;6.786;2023-04-01T04:02:49;9.60;99.90
26378;DHT22;14078;50.974;6.786;2023-04-01T04:05:16;9.70;99.90
26378;DHT22;14078;50.974;6.786;2023-04-01T04:07:42;9.70;99.90
26378;DHT22;14078;50.974;6.786;2023-04-01T04:10:09;9.70;99.90
26378;DHT22;14078;50.974;6.786;2023-04-01T04:12:35;9.70;99.90
26378;DHT22;14078;50.974;6.786;2023-04-01T04:15:02;9.70;99.90
26378;DHT22;14078;50.974;6.786;2023-04-01T04:17:29;9.70;99.90
26378;DHT22;14078;50.974;6.786;2023-04-01T04:19:56;9.70;99.90
26378;DHT22;14078;50.974;6.786;2023-04-01T04:22:23;9.70;99.90
26378;DHT22;14078;50.974;6.786;2023-04-01T04:24:49;9.70;99.90
26378;DHT22;14078;50.974;6.786;2023-04-01T04:27:16;9.60;99.90
26378;DHT22;14078;50.974;6.786;2023-04-01T04:29:43;9.60;99.90
26378;DHT22;14078;50.974;6.786;2023-04-01T04:32:09;9.60;99.90
26378;DHT22;14078;50.974;6.786;2023-04-01T04:34:36;9.60;99.90
26378;DHT22;14078;50.974;6.786;2023-04-01T04:37:03;9.60;99.90
26378;DHT22;14078;50.974;6.786;2023-04-01T04:39:30;9.60;99.90
26378;DHT22;14078;50.974;6.786;2023-04-01T04:41:57;9.60;99.90
26378;DHT22;14078;50.974;6.786;2023-04-01T04:44:23;9.50;99.90
26378;DHT22;14078;50.974;6.786;2023-04-01T04:46:50;9.50;99.90
26378;DHT22;14078;50.974;6.786;2023-04-01T04:49:16;9.50;99.90
26378;DHT22;14078;50.974;6.786;2023-04-01T04:51:43;9.50;99.90
26378;DHT22;14078;50.974;6.786;2023-04-01T04:54:11;9.40;99.90
26378;DHT22;14078;50.974;6.786;2023-04-01T04:56:37;9.40;99.90
26378;DHT22;14078;50.974;6.786;2023-04-01T04:59:03;9.40;99.90
26378;DHT22;14078;50.974;6.786;2023-04-01T05:01:31;9.40;99.90
26378;DHT22;14078;50.974;6.786;2023-04-01T05:03:58;9.40;99.90
26378;DHT22;14078;50.974;6.786;2023-04-01T05:06:25;9.50;99.90
26378;DHT22;14078;50.974;6.786;2023-04-01T05:08:54;9.40;99.90
26378;DHT22;14078;50.974;6.786;2023-04-01T05:11:23;9.40;99.90
26378;DHT22;14078;50.974;6.786;2023-04-01T05:13:51;9.40;99.90
26378;DHT22;14078;50.974;6.786;2023-04-01T05:16:18;9.50;99.90
26378;DHT22;14078;50.974;6.786;2023-04-01T05:18:45;9.50;99.90
26378;DHT22;14078;50.974;6.786;2023-04-01T05:21:12;9.50;99.90
26378;DHT22;14078;50.974;6.786;2023-04-01T05:23:40;9.50;99.90
26378;DHT22;14078;50.974;6.786;2023-04-01T05:26:07;9.40;99.90
26378;DHT22;14078;50.974;6.786;2023-04-01T05:28:36;9.50;99.90
26378;DHT22;14078;50.974;6.786;2023-04-01T05:31:03;9.50;99.90
26378;DHT22;14078;50.974;6.786;2023-04-01T05:33:30;9.50;99.90
26378;DHT22;14078;50.974;6.786;2023-04-01T05:36:04;9.50;99.90
26378;DHT22;14078;50.974;6.786;2023-04-01T05:38:31;9.50;99.90
26378;DHT22;14078;50.974;6.786;2023-04-01T05:40:58;9.50;99.90
26378;DHT22;14078;50.974;6.786;2023-04-01T05:43:24;9.60;99.90
26378;DHT22;14078;50.974;6.786;2023-04-01T05:45:52;9.60;99.90
26378;DHT22;14078;50.974;6.786;2023-04-01T05:48:19;9.60;99.90
26378;DHT22;14078;50.974;6.786;2023-04-01T05:50:45;9.60;99.90
26378;DHT22;14078;50.974;6.786;2023-04-01T05:53:12;9.60;99.90
26378;DHT22;14078;50.974;6.786;2023-04-01T05:55:38;9.60;99.90
26378;DHT22;14078;50.974;6.786;2023-04-01T05:58:05;9.50;99.90
26378;DHT22;14078;50.974;6.786;2023-04-01T06:00:31;9.50;99.90
26378;DHT22;14078;50.974;6.786;2023-04-01T06:02:59;9.50;99.90
26378;DHT22;14078;50.974;6.786;2023-04-01T06:05:27;9.60;99.90
26378;DHT22;14078;50.974;6.786;2023-04-01T06:07:55;9.50;99.90
26378;DHT22;14078;50.974;6.786;2023-04-01T06:10:23;9.60;99.90
26378;DHT22;14078;50.974;6.786;2023-04-01T06:12:59;9.60;99.90
26378;DHT22;14078;50.974;6.786;2023-04-01T06:15:32;9.60;99.90
26378;DHT22;14078;50.974;6.786;2023-04-01T06:18:17;9.60;99.90
26378;DHT22;14078;50.974;6.786;2023-04-01T06:20:49;9.70;99.90
26378;DHT22;14078;50.974;6.786;2023-04-01T06:23:29;9.70;99.90
26378;DHT22;14078;50.974;6.786;2023-04-01T06:26:08;9.70;99.90
26378;DHT22;14078;50.974;6.786;2023-04-01T06:28:43;9.70;99.90
26378;DHT22;14078;50.974;6.786;2023-04-01T06:31:16;9.80;99.90
26378;DHT22;14078;50.974;6.786;2023-04-01T06:33:50;9.80;99.90
26378;DHT22;14078;50.974;6.786;2023-04-01T06:36:23;9.80;99.90
26378;DHT22;14078;50.974;6.786;2023-04-01T06:38:56;9.80;99.90
26378;DHT22;14078;50.974;6.786;2023-04-01T06:44:20;9.90;99.90
26378;DHT22;14078;50.974;6.786;2023-04-01T06:46:51;9.90;99.90
26378;DHT22;14078;50.974;6.786;2023-04-01T06:49:31;10.00;99.90
26378;DHT22;14078;50.974;6.786;2023-04-01T06:52:00;9.90;99.90
26378;DHT22;14078;50.974;6.786;2023-04-01T06:54:30;9.90;99.90
26378;DHT22;14078;50.974;6.786;2023-04-01T06:56:58;9.90;99.90
26378;DHT22;14078;50.974;6.786;2023-04-01T06:59:26;9.90;99.90
26378;DHT22;14078;50.974;6.786;2023-04-01T07:01:54;9.80;99.90
26378;DHT22;14078;50.974;6.786;2023-04-01T07:04:22;9.80;99.90
26378;DHT22;14078;50.974;6.786;2023-04-01T07:06:52;9.80;99.90
26378;DHT22;14078;50.974;6.786;2023-04-01T07:09:20;9.80;99.90
26378;DHT22;14078;50.974;6.786;2023-04-01T07:11:48;9.80;99.90
26378;DHT22;14078;50.974;6.786;2023-04-01T07:14:17;9.80;99.90
26378;DHT22;14078;50.974;6.786;2023-04-01T07:16:47;9.80;99.90
26378;DHT22;14078;50.974;6.786;2023-04-01T07:19:16;9.80;99.90
26378;DHT22;14078;50.974;6.786;2023-04-01T07:21:45;9.80;99.90
26378;DHT22;14078;50.974;6.786;2023-04-01T07:24:16;9.80;99.90
26378;DHT22;14078;50.974;6.786;2023-04-01T07:26:44;9.80;99.90
26378;DHT22;14078;50.974;6.786;2023-04-01T07:29:11;9.80;99.90
26378;DHT22;14078;50.974;6.786;2023-04-01T07:31:43;9.80;99.90
26378;DHT22;14078;50.974;6.786;2023-04-01T07:34:12;9.80;99.90
26378;DHT22;14078;50.974;6.786;2023-04-01T07:36:42;9.80;99.90
26378;DHT22;14078;50.974;6.786;2023-04-01T07:39:12;9.80;99.90
26378;DHT22;14078;50.974;6.786;2023-04-01T07:41:48;9.80;99.90
26378;DHT22;14078;50.974;6.786;2023-04-01T07:44:18;9.80;99.90
26378;DHT22;14078;50.974;6.786;2023-04-01T07:46:53;9.80;99.90
26378;DHT22;14078;50.974;6.786;2023-04-01T07:49:23;9.80;99.90
26378;DHT22;14078;50.974;6.786;2023-04-01T07:51:54;9.80;99.90
26378;DHT22;14078;50.974;6.786;2023-04-01T07:54:26;9.80;99.90
26378;DHT22;14078;50.974;6.786;2023-04-01T07:56:57;9.80;99.90
26378;DHT22;14078;50.974;6.786;2023-04-01T07:59:27;9.90;99.90
26378;DHT22;14078;50.974;6.786;2023-04-01T08:01:58;9.90;99.90
26378;DHT22;14078;50.974;6.786;2023-04-01T08:04:28;9.90;99.90
26378;DHT22;14078;50.974;6.786;2023-04-01T08:06:58;9.90;99.90
26378;DHT22;14078;50.974;6.786;2023-04-01T08:09:27;9.90;99.90
26378;DHT22;14078;50.974;6.786;2023-04-01T08:12:02;9.90;99.90
26378;DHT22;14078;50.974;6.786;2023-04-01T08:14:31;9.90;99.90
26378;DHT22;14078;50.974;6.786;2023-04-01T08:17:00;9.90;99.90
26378;DHT22;14078;50.974;6.786;2023-04-01T08:19:30;9.90;99.90
26378;DHT22;14078;50.974;6.786;2023-04-01T08:22:02;10.00;99.90
26378;DHT22;14078;50.974;6.786;2023-04-01T08:24:33;9.90;99.90
26378;DHT22;14078;50.974;6.786;2023-04-01T08:27:03;10.00;99.90
26378;DHT22;14078;50.974;6.786;2023-04-01T08:29:34;9.90;99.90
26378;DHT22;14078;50.974;6.786;2023-04-01T08:32:03;10.00;99.90
26378;DHT22;14078;50.974;6.786;2023-04-01T08:34:32;10.00;99.90
26378;DHT22;14078;50.974;6.786;2023-04-01T08:37:01;10.10;99.90
26378;DHT22;14078;50.974;6.786;2023-04-01T22:02:32;9.50;99.90
26378;DHT22;14078;50.974;6.786;2023-04-01T22:05:05;9.40;99.90
26378;DHT22;14078;50.974;6.786;2023-04-01T22:07:34;9.30;99.90
26378;DHT22;14078;50.974;6.786;2023-04-01T22:10:04;9.30;99.90
26378;DHT22;14078;50.974;6.786;2023-04-01T22:12:33;9.40;99.90
26378;DHT22;14078;50.974;6.786;2023-04-01T22:15:04;9.40;99.90
26378;DHT22;14078;50.974;6.786;2023-04-01T22:17:37;9.30;99.90
26378;DHT22;14078;50.974;6.786;2023-04-01T22:20:10;9.40;99.90
26378;DHT22;14078;50.974;6.786;2023-04-01T22:22:49;9.40;99.90
26378;DHT22;14078;50.974;6.786;2023-04-01T22:25:19;9.40;99.90
26378;DHT22;14078;50.974;6.786;2023-04-01T22:27:49;9.40;99.90
26378;DHT22;14078;50.974;6.786;2023-04-01T22:30:19;9.40;99.90
26378;DHT22;14078;50.974;6.786;2023-04-01T22:32:50;9.40;99.90
26378;DHT22;14078;50.974;6.786;2023-04-01T22:35:22;9.30;99.90
26378;DHT22;14078;50.974;6.786;2023-04-01T22:37:53;9.30;99.90
26378;DHT22;14078;50.974;6.786;2023-04-01T22:40:24;9.20;99.90
26378;DHT22;14078;50.974;6.786;2023-04-01T22:42:53;9.20;99.90
26378;DHT22;14078;50.974;6.786;2023-04-01T22:45:30;9.20;99.90
26378;DHT22;14078;50.974;6.786;2023-04-01T22:48:04;9.20;99.90
26378;DHT22;14078;50.974;6.786;2023-04-01T22:50:32;9.20;99.90
26378;DHT22;14078;50.974;6.786;2023-04-01T22:53:04;9.20;99.90
26378;DHT22;14078;50.974;6.786;2023-04-01T22:55:34;9.20;99.90
26378;DHT22;14078;50.974;6.786;2023-04-01T22:58:03;9.00;99.90
26378;DHT22;14078;50.974;6.786;2023-04-01T23:00:32;9.00;99.90
26378;DHT22;14078;50.974;6.786;2023-04-01T23:03:08;8.90;99.90
26378;DHT22;14078;50.974;6.786;2023-04-01T23:05:39;8.90;99.90
26378;DHT22;14078;50.974;6.786;2023-04-01T23:08:16;8.90;99.90
26378;DHT22;14078;50.974;6.786;2023-04-01T23:10:52;8.80;99.90
26378;DHT22;14078;50.974;6.786;2023-04-01T23:13:22;8.80;99.90
26378;DHT22;14078;50.974;6.786;2023-04-01T23:15:50;8.80;99.90
26378;DHT22;14078;50.974;6.786;2023-04-01T23:18:20;8.80;99.90
26378;DHT22;14078;50.974;6.786;2023-04-01T23:21:00;8.80;99.90
26378;DHT22;14078;50.974;6.786;2023-04-01T23:23:30;8.70;99.90
26378;DHT22;14078;50.974;6.786;2023-04-01T23:26:01;8.70;99.90
26378;DHT22;14078;50.974;6.786;2023-04-01T23:34:19;8.70;99.90
26378;DHT22;14078;50.974;6.786;2023-04-01T23:36:47;8.60;99.90
26378;DHT22;14078;50.974;6.786;2023-04-01T23:39:22;8.60;99.90
26378;DHT22;14078;50.974;6.786;2023-04-01T23:41:50;8.60;99.90
26378;DHT22;14078;50.974;6.786;2023-04-01T23:44:18;8.50;99.90
26378;DHT22;14078;50.974;6.786;2023-04-01T23:46:45;8.50;99.90
26378;DHT22;14078;50.974;6.786;2023-04-01T23:49:13;8.60;99.90
26378;DHT22;14078;50.974;6.786;2023-04-01T23:51:49;8.50;99.90
26378;DHT22;14078;50.974;6.786;2023-04-01T23:54:17;8.50;99.90
26378;DHT22;14078;50.974;6.786;2023-04-01T23:56:45;8.50;99.90
26378;DHT22;14078;50.974;6.786;2023-04-01T23:59:14;8.50;99.90
